Time;durP1;ratioP1;P1;durP2;ratioP2;P2;SDS_P1;SDS_P2;PMS_P1;PMS_P2;Temp;Humidity;BMP_temperature;BMP_pressure;BME280_temperature;BME280_humidity;BME280_pressure;Samples;Min_cycle;Max_cycle;Signal;HPM_P1;HPM_P2
2022/12/11 00:01:19;;;;;;;76.22;29.63;;;;;;;2.18;91.70;101215.88;5065029;28;20440;-53
2022/12/11 00:03:45;;;;;;;74.65;28.65;;;;;;;2.20;91.49;101211.81;5063416;28;20062;-53
2022/12/11 00:06:13;;;;;;;82.57;30.13;;;;;;;2.18;91.60;101210.81;5062925;28;20441;-52
2022/12/11 00:08:38;;;;;;;83.40;31.02;;;;;;;2.18;91.65;101214.22;5061892;28;20621;-58
2022/12/11 00:11:07;;;;;;;81.60;29.42;;;;;;;2.20;91.63;101214.34;5064293;28;20032;-53
2022/12/11 00:13:32;;;;;;;80.05;29.02;;;;;;;2.22;91.68;101205.19;5063444;28;20024;-52
2022/12/11 00:15:58;;;;;;;81.32;30.48;;;;;;;2.25;91.59;101213.00;5064990;28;20043;-52
2022/12/11 00:18:23;;;;;;;77.32;30.83;;;;;;;2.24;91.25;101212.09;5062634;28;20024;-53
2022/12/11 00:20:49;;;;;;;84.85;31.15;;;;;;;2.26;91.32;101204.59;5065474;28;20064;-53
2022/12/11 00:23:14;;;;;;;81.90;30.02;;;;;;;2.25;91.41;101207.94;5062870;28;20438;-49
2022/12/11 00:25:41;;;;;;;86.57;30.40;;;;;;;2.24;91.36;101206.16;5065750;28;20028;-53
2022/12/11 00:28:06;;;;;;;79.82;30.10;;;;;;;2.25;91.58;101207.94;5063897;28;20098;-51
2022/12/11 00:30:32;;;;;;;80.95;30.88;;;;;;;2.25;91.18;101208.81;5068908;28;20036;-53
2022/12/11 00:32:57;;;;;;;83.38;31.02;;;;;;;2.25;91.16;101202.84;5060576;28;20119;-47
2022/12/11 00:35:22;;;;;;;81.55;30.25;;;;;;;2.25;91.42;101203.72;5065408;28;20111;-53
2022/12/11 00:37:48;;;;;;;81.63;30.02;;;;;;;2.23;91.24;101207.81;5064457;28;20067;-49
2022/12/11 00:40:13;;;;;;;82.43;31.80;;;;;;;2.25;91.32;101213.00;5062648;28;20033;-47
2022/12/11 00:42:38;;;;;;;81.82;31.25;;;;;;;2.22;91.19;101208.59;5062373;28;20485;-53
2022/12/11 00:45:04;;;;;;;79.68;30.58;;;;;;;2.24;91.31;101206.16;5063517;28;20065;-53
2022/12/11 00:47:29;;;;;;;79.53;30.60;;;;;;;2.27;91.39;101206.38;5061914;28;20053;-53
2022/12/11 00:49:55;;;;;;;81.60;30.63;;;;;;;2.26;91.08;101202.06;5064874;28;20028;-52
2022/12/11 00:52:21;;;;;;;82.97;30.95;;;;;;;2.24;91.28;101206.16;5062639;28;20090;-51
2022/12/11 00:54:46;;;;;;;83.35;30.73;;;;;;;2.26;91.42;101202.06;5064825;28;20393;-55
2022/12/11 00:57:11;;;;;;;85.30;31.98;;;;;;;2.25;91.49;101197.78;5066152;28;20020;-53
2022/12/11 00:59:37;;;;;;;78.72;29.73;;;;;;;2.27;91.32;101206.38;5064192;28;20025;-53
2022/12/11 01:02:02;;;;;;;82.40;31.73;;;;;;;2.25;91.04;101203.72;5063495;28;20028;-53
2022/12/11 01:04:28;;;;;;;75.50;30.52;;;;;;;2.27;91.27;101206.38;5064552;28;20034;-53
2022/12/11 01:06:53;;;;;;;81.40;31.75;;;;;;;2.29;91.43;101200.59;5066024;28;20025;-51
2022/12/11 01:12:02;;;;;;;69.70;28.38;;;;;;;2.30;91.32;101201.47;5061738;28;20047;-53
2022/12/11 01:14:28;;;;;;;77.78;30.75;;;;;;;2.30;91.11;101201.47;5063810;28;20032;-52
2022/12/11 01:16:53;;;;;;;75.80;29.15;;;;;;;2.31;91.19;101194.00;5062791;28;20094;-53
2022/12/11 01:19:18;;;;;;;73.35;29.90;;;;;;;2.30;91.27;101192.19;5061416;28;20037;-50
2022/12/11 01:21:44;;;;;;;69.50;27.98;;;;;;;2.31;91.11;101200.72;5066764;28;20063;-52
2022/12/11 01:24:09;;;;;;;70.50;27.90;;;;;;;2.33;91.11;101194.09;5062348;28;20080;-51
2022/12/11 01:26:35;;;;;;;75.13;29.55;;;;;;;2.35;91.25;101207.75;5061105;28;20037;-54
2022/12/11 01:29:00;;;;;;;72.40;29.10;;;;;;;2.34;91.17;101203.44;5061256;28;20029;-53
2022/12/11 01:31:26;;;;;;;65.05;28.38;;;;;;;2.38;91.03;101215.56;5062851;28;20032;-53
2022/12/11 01:33:53;;;;;;;66.93;28.67;;;;;;;2.37;90.95;101204.53;5061460;28;20882;-48
2022/12/11 01:36:20;;;;;;;67.35;27.33;;;;;;;2.35;91.07;101203.53;5066578;28;20035;-48
2022/12/11 01:38:47;;;;;;;68.68;27.60;;;;;;;2.35;91.05;101213.69;5059468;28;20059;-53
2022/12/11 01:41:13;;;;;;;67.20;27.45;;;;;;;2.34;91.08;101208.53;5063222;28;20024;-49
2022/12/11 01:44:03;;;;;;;69.82;28.67;;;;;;;2.43;91.17;101206.63;5062143;28;22232;-52
2022/12/11 01:46:30;;;;;;;66.88;27.30;;;;;;;2.36;90.96;101195.16;5062503;28;20503;-52
2022/12/11 01:48:57;;;;;;;60.80;27.88;;;;;;;2.37;90.94;101198.59;5064364;28;20037;-53
2022/12/11 01:51:23;;;;;;;62.97;26.67;;;;;;;2.36;91.00;101196.81;5064038;28;20110;-47
2022/12/11 01:53:57;;;;;;;63.92;27.17;;;;;;;2.39;90.92;101197.91;5063604;28;20528;-53
2022/12/11 01:56:23;;;;;;;65.57;25.88;;;;;;;2.39;90.75;101194.50;5063766;28;20025;-51
2022/12/11 01:58:54;;;;;;;65.78;26.63;;;;;;;2.41;90.98;101191.25;5061813;28;20115;-52
2022/12/11 02:01:26;;;;;;;63.03;26.55;;;;;;;2.45;90.94;101192.34;5060562;28;20040;-51
2022/12/11 02:03:54;;;;;;;66.63;26.48;;;;;;;2.45;90.67;101188.94;5063368;28;20469;-50
2022/12/11 02:06:43;;;;;;;60.88;26.65;;;;;;;2.51;90.81;101191.88;5064596;28;20028;-52
2022/12/11 02:09:12;;;;;;;63.03;25.80;;;;;;;2.46;90.41;101181.41;5062600;28;20385;-53
2022/12/11 02:12:10;;;;;;;65.57;28.02;;;;;;;2.51;90.78;101180.06;5062584;28;20491;-51
2022/12/11 02:14:41;;;;;;;62.40;25.73;;;;;;;2.46;90.75;101178.00;5066133;28;20027;-53
2022/12/11 02:17:20;;;;;;;59.22;25.65;;;;;;;2.50;90.67;101178.31;5059759;28;20370;-51
2022/12/11 02:19:56;;;;;;;55.78;24.80;;;;;;;2.50;90.78;101180.84;5063424;28;21931;-51
2022/12/11 02:22:45;;;;;;;58.00;25.95;;;;;;;2.48;90.74;101184.91;5062679;28;20032;-53
2022/12/11 02:25:20;;;;;;;56.75;25.50;;;;;;;2.46;90.45;101183.06;5061740;28;20055;-49
2022/12/11 02:27:56;;;;;;;57.22;26.50;;;;;;;2.51;90.81;101185.13;5061167;28;20017;-53
2022/12/11 02:30:22;;;;;;;54.67;25.35;;;;;;;2.47;90.53;101179.75;5057920;28;20510;-52
2022/12/11 02:32:54;;;;;;;56.58;24.13;;;;;;;2.51;90.60;101177.53;5062184;28;20099;-53
2022/12/11 02:35:27;;;;;;;52.55;24.30;;;;;;;2.53;90.43;101180.16;5062073;28;20033;-53
2022/12/11 02:37:59;;;;;;;57.83;24.52;;;;;;;2.51;90.38;101182.59;5062315;28;20087;-56
2022/12/11 02:40:30;;;;;;;54.45;25.00;;;;;;;2.56;90.35;101185.44;5062920;28;20020;-55
2022/12/11 02:43:01;;;;;;;49.90;25.30;;;;;;;2.54;90.48;101182.78;5065714;28;20046;-57
2022/12/11 02:45:27;;;;;;;52.35;22.92;;;;;;;2.50;90.17;101172.34;5060374;28;20037;-50
2022/12/11 02:47:53;;;;;;;52.28;23.55;;;;;;;2.51;90.24;101177.53;5064516;28;20485;-53
2022/12/11 02:50:22;;;;;;;47.60;23.48;;;;;;;2.52;90.26;101176.75;5063937;28;20293;-53
2022/12/11 02:52:51;;;;;;;50.58;24.85;;;;;;;2.53;90.27;101173.41;5063653;28;20024;-53
2022/12/11 02:55:18;;;;;;;49.50;23.40;;;;;;;2.54;90.39;101175.16;5065589;28;20035;-53
2022/12/11 02:57:56;;;;;;;49.15;22.90;;;;;;;2.53;90.17;101170.00;5059806;28;20029;-53
2022/12/11 03:00:21;;;;;;;46.13;22.95;;;;;;;2.54;90.11;101175.16;5062443;28;20056;-53
2022/12/11 03:02:46;;;;;;;48.13;23.00;;;;;;;2.51;90.14;101166.50;5059926;28;21267;-49
2022/12/11 03:05:14;;;;;;;47.47;22.95;;;;;;;2.53;90.11;101159.84;5061542;28;20474;-53
2022/12/11 03:07:41;;;;;;;47.22;22.88;;;;;;;2.49;90.24;101163.88;5065331;28;20032;-50
2022/12/11 03:10:09;;;;;;;49.45;23.17;;;;;;;2.54;90.35;101161.59;5062086;28;20061;-53
2022/12/11 03:12:38;;;;;;;46.80;22.38;;;;;;;2.52;90.37;101155.56;5063796;28;20029;-49
2022/12/11 03:15:09;;;;;;;45.08;23.48;;;;;;;2.53;90.26;101153.09;5060762;28;20025;-51
2022/12/11 03:18:08;;;;;;;47.92;22.00;;;;;;;2.58;90.42;101156.81;5062579;28;20033;-53
2022/12/11 03:20:42;;;;;;;45.28;22.08;;;;;;;2.56;90.13;101144.84;5065735;28;20123;-53
2022/12/11 03:23:13;;;;;;;44.40;21.85;;;;;;;2.49;90.05;101153.72;5065159;28;20020;-53
2022/12/11 03:25:49;;;;;;;41.42;21.65;;;;;;;2.53;89.87;101150.56;5063690;28;20031;-50
2022/12/11 03:28:25;;;;;;;44.17;21.02;;;;;;;2.55;89.97;101151.56;5064048;28;20349;-53
2022/12/11 03:30:53;;;;;;;40.33;20.95;;;;;;;2.53;89.63;101154.78;5065217;28;20028;-53
2022/12/11 03:33:24;;;;;;;40.45;21.05;;;;;;;2.55;89.84;101160.81;5066358;28;20032;-50
2022/12/11 03:35:55;;;;;;;42.67;21.95;;;;;;;2.56;89.47;101155.84;5064206;28;20034;-53
2022/12/11 03:38:33;;;;;;;42.05;21.33;;;;;;;2.55;89.51;101151.56;5062521;28;20033;-53
2022/12/11 03:41:03;;;;;;;35.38;19.88;;;;;;;2.55;88.92;101151.56;5058912;28;20036;-49
2022/12/11 03:43:30;;;;;;;38.88;20.10;;;;;;;2.53;88.96;101150.56;5064686;28;20062;-52
2022/12/11 03:45:58;;;;;;;37.45;20.73;;;;;;;2.52;88.46;101156.44;5058441;28;20104;-53
2022/12/11 03:48:26;;;;;;;36.40;20.00;;;;;;;2.53;88.26;101149.69;5062197;28;20094;-53
2022/12/11 03:50:52;;;;;;;36.13;19.55;;;;;;;2.55;88.20;101149.03;5061243;28;20028;-58
2022/12/11 03:53:19;;;;;;;33.63;18.80;;;;;;;2.56;88.04;101144.84;5066174;28;20029;-52
2022/12/11 03:55:47;;;;;;;34.38;19.90;;;;;;;2.54;87.79;101148.91;5065740;28;20033;-53
2022/12/11 03:58:12;;;;;;;33.33;20.13;;;;;;;2.54;87.83;101138.75;5064258;28;20462;-53
2022/12/11 04:00:37;;;;;;;33.22;18.80;;;;;;;2.51;87.77;101133.50;5061279;28;20104;-53
2022/12/11 04:03:12;;;;;;;31.30;18.33;;;;;;;2.51;87.69;101138.56;5060693;28;20131;-52
2022/12/11 04:05:42;;;;;;;31.15;17.77;;;;;;;2.52;87.57;101128.50;5064708;28;20040;-51
2022/12/11 04:08:07;;;;;;;32.30;18.15;;;;;;;2.49;87.50;101133.41;5064484;28;20061;-50
2022/12/11 04:10:32;;;;;;;30.83;18.00;;;;;;;2.54;87.62;101132.00;5062781;28;20060;-57
2022/12/11 04:12:58;;;;;;;29.10;17.23;;;;;;;2.55;87.59;101137.97;5062249;28;20067;-54
2022/12/11 04:15:23;;;;;;;29.17;17.67;;;;;;;2.52;87.64;101133.59;5067002;28;20376;-50
2022/12/11 04:26:07;;;;;;;29.38;17.77;;;;;;;2.53;86.31;101129.38;5058001;28;20539;-53
2022/12/11 04:28:33;;;;;;;28.63;17.15;;;;;;;2.53;86.15;101130.25;5064286;28;20020;-48
2022/12/11 04:30:58;;;;;;;30.13;18.50;;;;;;;2.50;85.41;101135.16;5063115;28;20035;-53
2022/12/11 04:33:23;;;;;;;28.02;18.08;;;;;;;2.50;85.38;101135.16;5065373;28;20114;-52
2022/12/11 04:35:49;;;;;;;27.67;18.08;;;;;;;2.48;85.47;101126.53;5063215;28;20035;-52
2022/12/11 04:38:14;;;;;;;29.45;18.65;;;;;;;2.53;85.80;101134.47;5060126;28;20045;-53
2022/12/11 04:40:40;;;;;;;27.48;17.05;;;;;;;2.54;85.66;101129.47;5067836;28;20596;-54
2022/12/11 04:43:05;;;;;;;26.05;17.27;;;;;;;2.54;85.63;101129.47;5063885;28;20424;-51
2022/12/11 04:45:30;;;;;;;27.73;17.45;;;;;;;2.53;85.61;101129.38;5062344;28;20040;-51
2022/12/11 04:47:56;;;;;;;27.23;16.63;;;;;;;2.52;85.45;101125.09;5062998;28;20720;-43
2022/12/11 04:50:21;;;;;;;27.25;15.85;;;;;;;2.50;85.26;101124.13;5062234;28;20041;-50
2022/12/11 04:52:46;;;;;;;27.67;16.70;;;;;;;2.49;85.18;101122.34;5062203;28;20078;-50
2022/12/11 04:55:12;;;;;;;27.02;15.57;;;;;;;2.53;85.49;101120.09;5064481;28;20454;-52
2022/12/11 04:57:37;;;;;;;26.77;16.15;;;;;;;2.58;85.40;101125.50;5064536;28;20393;-51
2022/12/11 05:00:06;;;;;;;24.83;15.18;;;;;;;2.56;85.44;101120.31;5060422;28;20024;-50
2022/12/11 05:02:36;;;;;;;24.20;15.25;;;;;;;2.60;85.19;101129.88;5063719;28;20086;-51
2022/12/11 05:05:06;;;;;;;22.83;14.15;;;;;;;2.58;85.13;101125.50;5063632;28;20492;-51
2022/12/11 05:07:31;;;;;;;23.83;14.30;;;;;;;2.55;84.77;101122.72;5061236;28;20043;-48
2022/12/11 05:09:57;;;;;;;21.50;13.95;;;;;;;2.56;84.69;101124.53;5065403;28;20040;-50
2022/12/11 05:12:22;;;;;;;23.88;14.43;;;;;;;2.56;84.68;101117.78;5063918;28;20040;-51
2022/12/11 05:14:51;;;;;;;22.38;13.63;;;;;;;2.55;84.79;101123.66;5062299;28;20029;-51
2022/12/11 05:17:17;;;;;;;22.95;12.88;;;;;;;2.52;84.14;101128.50;5061099;28;20033;-51
2022/12/11 05:19:43;;;;;;;20.85;12.95;;;;;;;2.50;84.02;101134.28;5061368;28;20033;-56
2022/12/11 05:22:08;;;;;;;22.02;12.77;;;;;;;2.54;83.97;101126.94;5060532;28;20382;-52
2022/12/11 05:24:33;;;;;;;23.67;12.82;;;;;;;2.53;84.33;101121.78;5065863;28;20123;-51
2022/12/11 05:26:59;;;;;;;23.40;13.07;;;;;;;2.49;83.69;101118.19;5059481;28;20335;-51
2022/12/11 05:29:24;;;;;;;21.95;12.65;;;;;;;2.51;83.96;101121.69;5060500;28;20079;-47
2022/12/11 05:31:50;;;;;;;19.63;12.18;;;;;;;2.55;84.16;101116.03;5058650;28;20052;-51
2022/12/11 05:34:15;;;;;;;21.02;12.35;;;;;;;2.58;83.94;101117.88;5061562;28;20374;-48
2022/12/11 05:36:41;;;;;;;22.20;12.55;;;;;;;2.55;83.69;101110.94;5061309;28;20024;-51
2022/12/11 05:39:06;;;;;;;18.95;12.05;;;;;;;2.60;83.74;101106.16;5059993;28;20047;-51
2022/12/11 05:41:32;;;;;;;21.55;12.25;;;;;;;2.61;83.54;101100.31;5060442;28;20028;-51
2022/12/11 05:43:58;;;;;;;20.25;11.77;;;;;;;2.58;83.49;101103.50;5055611;28;20369;-50
2022/12/11 05:46:26;;;;;;;22.83;12.68;;;;;;;2.55;83.56;101100.78;5061261;28;20422;-51
2022/12/11 05:48:54;;;;;;;23.25;12.68;;;;;;;2.56;83.66;101100.00;5061548;28;20506;-50
2022/12/11 05:51:20;;;;;;;24.58;12.77;;;;;;;2.53;83.31;101107.41;5064949;28;20393;-51
2022/12/11 05:53:47;;;;;;;19.50;12.43;;;;;;;2.55;83.08;101110.94;5062979;28;20028;-52
2022/12/11 05:56:19;;;;;;;20.42;12.50;;;;;;;2.55;83.52;101115.13;5059364;28;20033;-51
2022/12/11 05:58:46;;;;;;;21.55;12.18;;;;;;;2.55;83.20;101116.03;5067241;28;20056;-53
2022/12/11 06:01:38;;;;;;;19.13;11.35;;;;;;;2.61;83.11;101116.41;5059048;28;20553;-51
2022/12/11 06:04:05;;;;;;;20.65;11.73;;;;;;;2.52;82.69;101118.34;5058085;28;20041;-49
2022/12/11 06:06:31;;;;;;;20.00;11.55;;;;;;;2.56;82.84;101120.31;5060558;28;20028;-53
2022/12/11 06:08:58;;;;;;;19.75;11.77;;;;;;;2.52;82.54;101120.88;5060203;28;20036;-51
2022/12/11 06:11:26;;;;;;;18.88;11.15;;;;;;;2.50;82.56;101119.94;5059948;28;20482;-51
2022/12/11 06:13:52;;;;;;;18.92;11.15;;;;;;;2.52;82.71;101123.44;5060473;28;20473;-51
2022/12/11 06:16:17;;;;;;;20.45;11.43;;;;;;;2.54;82.44;101121.84;5061712;28;20047;-50
2022/12/11 06:18:44;;;;;;;20.15;12.07;;;;;;;2.53;82.83;101114.16;5060662;28;20033;-46
2022/12/11 06:21:18;;;;;;;20.88;12.13;;;;;;;2.59;83.22;101117.97;5063213;28;20373;-51
2022/12/11 06:23:44;;;;;;;20.52;11.95;;;;;;;2.54;82.98;101119.31;5058969;28;20028;-48
2022/12/11 06:26:10;;;;;;;20.75;12.38;;;;;;;2.55;82.91;101110.03;5060957;28;20028;-46
2022/12/11 06:28:36;;;;;;;21.45;12.23;;;;;;;2.54;82.92;101111.69;5057941;28;20025;-51
2022/12/11 06:31:02;;;;;;;19.35;10.98;;;;;;;2.53;83.06;101114.16;5063845;28;20439;-50
2022/12/11 06:33:29;;;;;;;21.05;12.38;;;;;;;2.56;83.46;101109.28;5061290;28;20033;-48
2022/12/11 06:35:54;;;;;;;19.63;11.98;;;;;;;2.57;82.62;101114.47;5064489;28;20039;-48
2022/12/11 06:38:20;;;;;;;20.85;12.07;;;;;;;2.61;82.94;101115.53;5065236;28;20119;-51
2022/12/11 06:40:45;;;;;;;21.55;12.23;;;;;;;2.64;83.04;101113.19;5059040;28;20722;-53
2022/12/11 06:43:10;;;;;;;22.08;12.27;;;;;;;2.64;82.98;101103.03;5062320;28;20101;-51
2022/12/11 06:45:36;;;;;;;20.77;11.95;;;;;;;2.63;82.88;101108.91;5062551;28;20024;-51
2022/12/11 06:48:02;;;;;;;19.50;11.50;;;;;;;2.65;82.85;101110.72;5062360;28;20037;-51
2022/12/11 06:50:27;;;;;;;21.52;12.32;;;;;;;2.64;83.06;101114.06;5063701;28;20051;-51
2022/12/11 06:52:55;;;;;;;21.15;12.40;;;;;;;2.68;83.20;101113.47;5063124;28;20428;-53
2022/12/11 06:55:21;;;;;;;22.48;11.82;;;;;;;2.66;83.19;101111.59;5065182;28;20419;-51
2022/12/11 06:57:46;;;;;;;23.55;12.43;;;;;;;2.65;83.13;101107.31;5068802;28;20054;-50
2022/12/11 07:00:12;;;;;;;19.95;12.25;;;;;;;2.68;83.14;101105.88;5061693;28;20040;-50
2022/12/11 07:02:38;;;;;;;18.45;11.43;;;;;;;2.64;83.36;101103.91;5069320;28;20405;-50
2022/12/11 07:05:03;;;;;;;21.67;12.63;;;;;;;2.63;82.23;101107.22;5061655;28;20033;-51
2022/12/11 07:07:29;;;;;;;23.05;13.70;;;;;;;2.62;82.67;101105.47;5066150;28;20036;-50
2022/12/11 07:09:54;;;;;;;21.92;13.43;;;;;;;2.68;83.31;101105.00;5064816;28;20033;-50
2022/12/11 07:12:20;;;;;;;23.05;13.18;;;;;;;2.64;83.01;101108.97;5065707;28;20116;-49
2022/12/11 07:14:45;;;;;;;22.27;12.90;;;;;;;2.67;82.96;101114.28;5065156;28;20217;-51
2022/12/11 07:17:10;;;;;;;21.67;13.25;;;;;;;2.67;82.59;101116.81;5065748;28;20086;-51
2022/12/11 07:19:36;;;;;;;20.42;12.57;;;;;;;2.64;82.39;101115.72;5065274;28;20024;-50
2022/12/11 07:22:01;;;;;;;22.25;12.93;;;;;;;2.66;82.04;101117.56;5065064;28;20032;-51
2022/12/11 07:24:26;;;;;;;21.50;13.13;;;;;;;2.68;82.51;101122.75;5065984;28;20032;-51
2022/12/11 07:26:52;;;;;;;23.20;12.88;;;;;;;2.66;82.68;101127.72;5067691;28;20045;-51
2022/12/11 07:29:18;;;;;;;22.15;12.93;;;;;;;2.61;82.63;101130.78;5069438;28;20044;-50
2022/12/11 07:31:43;;;;;;;21.55;13.32;;;;;;;2.63;82.89;101137.69;5065843;28;20028;-50
2022/12/11 07:34:11;;;;;;;22.85;12.93;;;;;;;2.69;83.13;101133.00;5068543;28;20032;-48
2022/12/11 07:36:37;;;;;;;24.70;13.07;;;;;;;2.62;83.06;101132.53;5065512;28;20439;-54
2022/12/11 07:39:02;;;;;;;21.73;13.30;;;;;;;2.62;82.98;101130.00;5068182;28;20037;-48
2022/12/11 07:41:27;;;;;;;25.65;14.38;;;;;;;2.61;83.08;101124.03;5063684;28;20032;-51
2022/12/11 07:43:58;;;;;;;24.70;13.73;;;;;;;2.64;83.16;101139.44;5068486;28;20055;-48
2022/12/11 07:46:27;;;;;;;23.25;13.73;;;;;;;2.66;83.31;101132.78;5065392;28;20040;-50
2022/12/11 07:48:52;;;;;;;23.67;14.15;;;;;;;2.64;83.61;101126.75;5065538;28;20044;-51
2022/12/11 07:51:23;;;;;;;24.75;14.05;;;;;;;2.61;83.03;101124.03;5066835;28;20389;-46
2022/12/11 07:53:49;;;;;;;23.20;14.32;;;;;;;2.65;82.48;101125.09;5066853;28;20024;-51
2022/12/11 07:56:16;;;;;;;23.75;14.73;;;;;;;2.67;82.17;101132.03;5065540;28;20547;-46
2022/12/11 07:58:42;;;;;;;26.90;15.18;;;;;;;2.67;82.93;101134.59;5066100;28;20039;-52
2022/12/11 08:01:38;;;;;;;24.25;14.25;;;;;;;2.73;82.92;101135.72;5065064;28;20029;-47
2022/12/11 08:04:06;;;;;;;24.30;14.07;;;;;;;2.73;82.14;101129.03;5064085;28;20036;-46
2022/12/11 08:06:34;;;;;;;25.08;14.65;;;;;;;2.69;81.75;101133.00;5063468;28;20028;-51
2022/12/11 08:09:02;;;;;;;23.77;14.38;;;;;;;2.71;81.56;101125.47;5066089;28;20286;-50
2022/12/11 08:11:28;;;;;;;25.70;14.45;;;;;;;2.69;82.32;101124.50;5066237;28;20041;-47
2022/12/11 08:13:54;;;;;;;23.27;13.85;;;;;;;2.74;82.14;101129.91;5064053;28;20043;-51
2022/12/11 08:16:19;;;;;;;22.85;13.80;;;;;;;2.71;81.88;101122.94;5064824;28;20028;-49
2022/12/11 08:18:46;;;;;;;27.55;14.48;;;;;;;2.77;82.43;101130.94;5064287;28;20029;-51
2022/12/11 08:21:14;;;;;;;24.98;14.65;;;;;;;2.73;83.12;101134.09;5065982;28;20461;-49
2022/12/11 08:23:40;;;;;;;24.60;14.60;;;;;;;2.74;82.46;101140.94;5064437;28;20043;-51
2022/12/11 08:26:08;;;;;;;23.58;13.88;;;;;;;2.72;82.35;101128.91;5063625;28;20024;-51
2022/12/11 08:28:34;;;;;;;24.05;13.70;;;;;;;2.68;82.50;101128.72;5064824;28;20040;-52
2022/12/11 08:31:03;;;;;;;25.75;15.05;;;;;;;2.74;82.84;101127.34;5061726;28;20432;-52
2022/12/11 08:33:28;;;;;;;25.15;14.60;;;;;;;2.74;82.39;101134.97;5063408;28;20428;-46
2022/12/11 08:35:54;;;;;;;23.90;14.50;;;;;;;2.74;82.61;101134.97;5067399;28;20044;-51
2022/12/11 08:38:19;;;;;;;24.73;14.10;;;;;;;2.80;82.37;101130.28;5069779;28;20086;-50
2022/12/11 08:40:44;;;;;;;25.40;14.05;;;;;;;2.75;81.88;101127.44;5069626;28;20423;-50
2022/12/11 08:43:10;;;;;;;25.90;14.25;;;;;;;2.77;82.49;101132.59;5068823;28;20039;-50
2022/12/11 08:45:35;;;;;;;25.40;14.60;;;;;;;2.80;82.70;101130.28;5064280;28;20513;-50
2022/12/11 08:48:00;;;;;;;24.27;14.43;;;;;;;2.74;82.46;101127.34;5065112;28;20098;-51
2022/12/11 08:50:26;;;;;;;22.80;14.10;;;;;;;2.77;82.67;101127.53;5061967;28;20059;-49
2022/12/11 08:52:52;;;;;;;26.17;14.80;;;;;;;2.79;82.83;101128.50;5064673;28;20039;-52
2022/12/11 08:55:18;;;;;;;25.52;14.85;;;;;;;2.79;82.91;101125.97;5064555;28;20032;-51
2022/12/11 08:57:44;;;;;;;24.52;14.43;;;;;;;2.79;82.92;101116.72;5063413;28;20033;-50
2022/12/11 09:00:11;;;;;;;26.70;15.80;;;;;;;2.81;82.83;101119.34;5063376;28;20090;-50
2022/12/11 09:02:37;;;;;;;27.50;15.93;;;;;;;2.79;82.71;101121.78;5061721;28;20477;-49
2022/12/11 09:05:06;;;;;;;27.52;15.65;;;;;;;2.80;82.15;101120.13;5065723;28;20070;-51
2022/12/11 09:07:32;;;;;;;29.60;15.75;;;;;;;2.80;82.55;101117.59;5064085;28;20036;-46
2022/12/11 09:09:57;;;;;;;26.67;14.77;;;;;;;2.77;82.76;101115.72;5064189;28;20040;-51
2022/12/11 09:12:22;;;;;;;24.30;14.48;;;;;;;2.83;82.40;101120.31;5062212;28;20384;-48
2022/12/11 09:14:48;;;;;;;31.08;15.68;;;;;;;2.82;82.06;101109.25;5063546;28;20067;-51
2022/12/11 09:17:13;;;;;;;26.42;15.23;;;;;;;2.80;82.38;101105.75;5061970;28;20397;-46
2022/12/11 09:19:39;;;;;;;25.80;15.65;;;;;;;2.83;82.60;101116.09;5066212;28;20094;-48
2022/12/11 09:22:04;;;;;;;27.60;14.63;;;;;;;2.83;82.65;101107.59;5061487;28;20039;-49
2022/12/11 09:24:29;;;;;;;26.33;14.68;;;;;;;2.82;82.44;101109.25;5065004;28;20115;-51
2022/12/11 09:26:55;;;;;;;24.73;14.65;;;;;;;2.87;82.58;101115.50;5062552;28;20021;-46
2022/12/11 09:29:20;;;;;;;25.20;14.63;;;;;;;2.86;82.74;101113.75;5062857;28;20513;-51
2022/12/11 09:31:46;;;;;;;27.58;15.85;;;;;;;2.83;82.82;101111.03;5067204;28;20075;-51
2022/12/11 09:34:12;;;;;;;28.45;15.05;;;;;;;2.86;82.80;101115.44;5060969;28;20098;-47
2022/12/11 09:36:39;;;;;;;26.58;15.18;;;;;;;2.89;82.80;101113.06;5059950;28;20024;-50
2022/12/11 09:39:06;;;;;;;25.20;14.50;;;;;;;2.86;82.53;101115.44;5062734;28;20070;-48
2022/12/11 09:41:39;;;;;;;24.90;14.95;;;;;;;2.89;82.51;101113.06;5064807;28;20039;-47
2022/12/11 09:44:04;;;;;;;26.15;15.38;;;;;;;2.85;82.50;101114.56;5060464;28;20376;-47
2022/12/11 09:46:32;;;;;;;25.52;14.98;;;;;;;2.85;82.33;101118.72;5063960;28;20024;-50
2022/12/11 09:48:58;;;;;;;27.58;14.60;;;;;;;2.83;82.51;101121.19;5061736;28;20497;-53
2022/12/11 09:51:28;;;;;;;26.10;14.73;;;;;;;2.86;82.55;101105.28;5064465;28;20150;-50
2022/12/11 09:53:55;;;;;;;27.30;14.55;;;;;;;2.81;82.05;101114.25;5060269;28;20039;-50
2022/12/11 09:56:26;;;;;;;29.35;15.35;;;;;;;2.86;82.40;101116.31;5062454;28;20036;-51
2022/12/11 09:59:25;;;;;;;27.60;15.10;;;;;;;2.87;82.68;101104.47;5067493;28;20036;-50
2022/12/11 10:01:53;;;;;;;27.80;14.52;;;;;;;2.87;82.61;101101.94;5064243;28;20358;-48
2022/12/11 10:04:39;;;;;;;25.45;14.98;;;;;;;2.88;83.02;101104.56;5067568;28;20021;-46
2022/12/11 10:07:15;;;;;;;26.40;15.50;;;;;;;2.85;82.66;101101.84;5067703;28;20056;-48
2022/12/11 10:09:55;;;;;;;28.67;16.05;;;;;;;2.82;82.11;101103.31;5065402;28;20031;-51
2022/12/11 10:12:46;;;;;;;27.23;15.75;;;;;;;2.80;82.15;101102.34;5068234;28;20024;-50
2022/12/11 10:15:15;;;;;;;29.13;15.95;;;;;;;2.85;83.02;101104.41;5050669;28;20033;-51
2022/12/11 10:17:43;;;;;;;28.00;15.90;;;;;;;2.86;82.47;101105.28;5059722;28;20044;-55
2022/12/11 10:20:08;;;;;;;30.40;15.98;;;;;;;2.88;81.82;101099.50;5065495;28;20047;-48
2022/12/11 10:22:34;;;;;;;30.73;16.67;;;;;;;2.89;81.64;101096.16;5064028;28;20032;-44
2022/12/11 10:25:06;;;;;;;28.13;15.93;;;;;;;2.90;81.72;101091.97;5061435;28;20036;-49
2022/12/11 10:27:37;;;;;;;27.85;16.00;;;;;;;2.91;81.88;101101.34;5070956;28;20515;-47
2022/12/11 10:30:12;;;;;;;30.60;15.80;;;;;;;2.90;82.68;101097.91;5067901;28;20036;-51
2022/12/11 10:32:56;;;;;;;27.98;16.13;;;;;;;2.91;82.56;101094.63;5067451;28;20043;-50
2022/12/11 10:35:30;;;;;;;29.20;16.15;;;;;;;2.91;82.62;101089.53;5067646;28;20035;-48
2022/12/11 10:38:19;;;;;;;29.75;16.45;;;;;;;2.96;82.59;101089.78;5065938;28;20032;-51
2022/12/11 10:40:51;;;;;;;30.95;16.45;;;;;;;2.93;81.88;101097.25;5069291;28;20029;-46
2022/12/11 10:43:17;;;;;;;27.75;15.23;;;;;;;2.88;82.07;101093.53;5068849;28;20036;-51
2022/12/11 10:45:53;;;;;;;28.10;15.35;;;;;;;2.92;82.21;101090.41;5068624;28;20108;-50
2022/12/11 10:48:19;;;;;;;31.58;15.45;;;;;;;2.90;81.96;101094.50;5065138;28;20039;-49
2022/12/11 10:50:55;;;;;;;26.65;15.88;;;;;;;2.95;82.26;101088.91;5065430;28;20036;-50
2022/12/11 10:53:22;;;;;;;29.33;15.93;;;;;;;2.89;82.35;101086.00;5066667;28;20381;-48
2022/12/11 10:55:49;;;;;;;30.13;15.13;;;;;;;2.91;82.51;101078.47;5068296;28;20485;-47
2022/12/11 10:58:21;;;;;;;28.90;16.33;;;;;;;2.99;82.31;101082.38;5065783;28;20451;-47
2022/12/11 11:01:01;;;;;;;28.98;15.75;;;;;;;2.99;82.42;101079.84;5064229;28;20552;-51
2022/12/11 11:03:27;;;;;;;27.23;15.05;;;;;;;2.96;82.54;101082.19;5063942;28;20064;-50
2022/12/11 11:06:14;;;;;;;27.58;15.07;;;;;;;3.02;82.78;101074.06;5066966;28;20028;-46
2022/12/11 11:08:46;;;;;;;30.95;15.68;;;;;;;3.00;82.55;101068.91;5064865;28;20032;-47
2022/12/11 11:11:19;;;;;;;26.05;15.30;;;;;;;3.04;82.44;101075.06;5078405;28;20043;-48
2022/12/11 11:13:45;;;;;;;30.80;15.63;;;;;;;3.01;81.92;101074.84;5067352;28;20028;-42
2022/12/11 11:16:12;;;;;;;29.00;16.35;;;;;;;3.01;81.83;101072.31;5068064;28;20033;-50
2022/12/11 11:18:40;;;;;;;29.45;16.83;;;;;;;2.99;82.11;101069.69;5062081;28;20024;-50
2022/12/11 11:21:14;;;;;;;25.75;15.25;;;;;;;3.00;82.20;101073.09;5061924;28;20546;-50
2022/12/11 11:23:40;;;;;;;29.45;15.73;;;;;;;3.01;81.73;101077.38;5061255;28;20033;-47
2022/12/11 11:26:08;;;;;;;27.50;15.25;;;;;;;2.99;82.47;101068.81;5059585;28;20047;-50
2022/12/11 11:28:37;;;;;;;28.05;14.82;;;;;;;3.01;82.23;101069.75;5059385;28;20039;-50
2022/12/11 11:31:10;;;;;;;30.02;15.68;;;;;;;3.01;82.39;101063.03;5062418;28;20040;-45
2022/12/11 11:33:44;;;;;;;26.58;14.77;;;;;;;2.98;82.24;101073.00;5060524;28;20553;-52